sensor_id;sensor_type;location;lat;lon;timestamp;pressure;altitude;pressure_sealevel;temperature;humidity
35419;BME280;21525;41.240;16.500;2023-07-13T00:02:16;101201.13;;;36.10;30.70
35419;BME280;21525;41.240;16.500;2023-07-13T00:04:42;101201.19;;;35.77;30.74
35419;BME280;21525;41.240;16.500;2023-07-13T00:07:08;101197.31;;;35.80;30.82
35419;BME280;21525;41.240;16.500;2023-07-13T00:09:34;101197.50;;;35.78;30.92
35419;BME280;21525;41.240;16.500;2023-07-13T00:12:01;101189.63;;;36.08;30.57
35419;BME280;21525;41.240;16.500;2023-07-13T00:14:29;101193.91;;;36.02;30.45
35419;BME280;21525;41.240;16.500;2023-07-13T00:16:55;101183.56;;;36.06;30.50
35419;BME280;21525;41.240;16.500;2023-07-13T00:19:21;101185.97;;;35.84;30.49
35419;BME280;21525;41.240;16.500;2023-07-13T00:21:47;101176.50;;;35.80;30.33
35419;BME280;21525;41.240;16.500;2023-07-13T00:24:15;101182.91;;;35.95;30.50
35419;BME280;21525;41.240;16.500;2023-07-13T00:26:42;101174.81;;;35.87;30.53
35419;BME280;21525;41.240;16.500;2023-07-13T00:29:12;101181.56;;;35.91;30.46
35419;BME280;21525;41.240;16.500;2023-07-13T00:31:38;101180.56;;;35.84;30.63
35419;BME280;21525;41.240;16.500;2023-07-13T00:34:04;101182.94;;;35.79;30.59
35419;BME280;21525;41.240;16.500;2023-07-13T00:36:30;101178.38;;;35.80;30.68
35419;BME280;21525;41.240;16.500;2023-07-13T00:38:57;101171.63;;;35.51;30.96
35419;BME280;21525;41.240;16.500;2023-07-13T00:41:23;101174.69;;;35.48;31.19
35419;BME280;21525;41.240;16.500;2023-07-13T00:43:49;101180.44;;;35.45;30.95
35419;BME280;21525;41.240;16.500;2023-07-13T00:46:27;101175.34;;;35.50;31.02
35419;BME280;21525;41.240;16.500;2023-07-13T00:48:57;101171.97;;;35.73;30.84
35419;BME280;21525;41.240;16.500;2023-07-13T00:51:28;101175.53;;;35.49;30.86
35419;BME280;21525;41.240;16.500;2023-07-13T00:54:00;101184.66;;;35.56;30.59
35419;BME280;21525;41.240;16.500;2023-07-13T00:56:29;101180.25;;;35.71;30.83
35419;BME280;21525;41.240;16.500;2023-07-13T00:58:56;101175.22;;;35.35;31.49
35419;BME280;21525;41.240;16.500;2023-07-13T01:01:23;101166.91;;;35.53;31.01
35419;BME280;21525;41.240;16.500;2023-07-13T01:03:48;101165.03;;;35.46;31.03
35419;BME280;21525;41.240;16.500;2023-07-13T01:06:14;101179.78;;;35.35;30.94
35419;BME280;21525;41.240;16.500;2023-07-13T01:08:40;101179.88;;;35.82;30.21
35419;BME280;21525;41.240;16.500;2023-07-13T01:11:06;101179.41;;;35.62;30.95
35419;BME280;21525;41.240;16.500;2023-07-13T01:13:33;101173.47;;;35.10;32.46
35419;BME280;21525;41.240;16.500;2023-07-13T01:16:04;101175.34;;;35.10;32.74
35419;BME280;21525;41.240;16.500;2023-07-13T01:18:31;101169.81;;;35.35;31.85
35419;BME280;21525;41.240;16.500;2023-07-13T01:21:02;101171.84;;;35.33;31.98
35419;BME280;21525;41.240;16.500;2023-07-13T01:23:29;101174.84;;;35.22;32.33
35419;BME280;21525;41.240;16.500;2023-07-13T01:25:56;101176.19;;;35.10;32.43
35419;BME280;21525;41.240;16.500;2023-07-13T01:28:23;101173.16;;;35.05;32.96
35419;BME280;21525;41.240;16.500;2023-07-13T01:30:53;101177.91;;;35.03;32.73
35419;BME280;21525;41.240;16.500;2023-07-13T01:33:20;101172.47;;;35.11;33.00
35419;BME280;21525;41.240;16.500;2023-07-13T01:35:46;101165.72;;;34.91;32.98
35419;BME280;21525;41.240;16.500;2023-07-13T01:38:15;101163.00;;;35.15;32.78
35419;BME280;21525;41.240;16.500;2023-07-13T01:40:41;101162.53;;;35.03;32.46
35419;BME280;21525;41.240;16.500;2023-07-13T01:43:07;101166.41;;;35.17;32.27
35419;BME280;21525;41.240;16.500;2023-07-13T01:45:32;101165.53;;;35.17;32.31
35419;BME280;21525;41.240;16.500;2023-07-13T01:47:58;101163.19;;;35.22;32.55
35419;BME280;21525;41.240;16.500;2023-07-13T01:50:25;101165.38;;;35.10;32.17
35419;BME280;21525;41.240;16.500;2023-07-13T01:52:52;101157.94;;;34.88;33.08
35419;BME280;21525;41.240;16.500;2023-07-13T01:55:19;101159.97;;;34.94;32.68
35419;BME280;21525;41.240;16.500;2023-07-13T01:57:45;101159.78;;;34.87;32.58
35419;BME280;21525;41.240;16.500;2023-07-13T02:00:12;101161.97;;;34.84;32.74
35419;BME280;21525;41.240;16.500;2023-07-13T02:02:41;101158.13;;;35.02;32.82
35419;BME280;21525;41.240;16.500;2023-07-13T02:05:09;101165.06;;;35.05;32.48
35419;BME280;21525;41.240;16.500;2023-07-13T02:07:35;101161.44;;;34.72;33.28
35419;BME280;21525;41.240;16.500;2023-07-13T02:10:00;101169.88;;;34.69;33.62
35419;BME280;21525;41.240;16.500;2023-07-13T02:12:26;101158.53;;;34.57;33.52
35419;BME280;21525;41.240;16.500;2023-07-13T02:14:52;101164.44;;;34.19;34.57
35419;BME280;21525;41.240;16.500;2023-07-13T02:17:18;101160.91;;;34.60;33.73
35419;BME280;21525;41.240;16.500;2023-07-13T02:19:43;101152.25;;;34.41;34.31
35419;BME280;21525;41.240;16.500;2023-07-13T02:22:09;101157.13;;;34.37;34.16
35419;BME280;21525;41.240;16.500;2023-07-13T02:24:35;101165.81;;;34.65;33.96
35419;BME280;21525;41.240;16.500;2023-07-13T02:27:00;101158.19;;;34.60;34.73
35419;BME280;21525;41.240;16.500;2023-07-13T02:29:26;101161.97;;;34.76;35.24
35419;BME280;21525;41.240;16.500;2023-07-13T02:31:52;101157.38;;;34.68;35.18
35419;BME280;21525;41.240;16.500;2023-07-13T02:34:18;101166.44;;;34.51;35.26
35419;BME280;21525;41.240;16.500;2023-07-13T02:36:44;101167.31;;;34.59;35.59
35419;BME280;21525;41.240;16.500;2023-07-13T02:39:11;101167.50;;;34.66;35.86
35419;BME280;21525;41.240;16.500;2023-07-13T02:41:38;101158.19;;;34.60;35.49
35419;BME280;21525;41.240;16.500;2023-07-13T02:44:04;101160.91;;;34.60;35.06
35419;BME280;21525;41.240;16.500;2023-07-13T02:46:31;101161.53;;;34.46;35.06
35419;BME280;21525;41.240;16.500;2023-07-13T02:48:57;101165.69;;;34.75;35.04
35419;BME280;21525;41.240;16.500;2023-07-13T02:51:22;101160.84;;;34.36;34.70
35419;BME280;21525;41.240;16.500;2023-07-13T02:53:48;101162.41;;;34.55;34.70
35419;BME280;21525;41.240;16.500;2023-07-13T02:56:14;101162.91;;;34.42;34.89
35419;BME280;21525;41.240;16.500;2023-07-13T02:58:40;101161.06;;;34.17;34.35
35419;BME280;21525;41.240;16.500;2023-07-13T03:01:08;101164.34;;;34.87;33.09
35419;BME280;21525;41.240;16.500;2023-07-13T03:03:34;101167.97;;;34.53;33.60
35419;BME280;21525;41.240;16.500;2023-07-13T03:06:02;101173.81;;;33.98;34.60
35419;BME280;21525;41.240;16.500;2023-07-13T03:08:35;101166.25;;;34.36;34.60
35419;BME280;21525;41.240;16.500;2023-07-13T03:11:01;101169.53;;;34.22;34.06
35419;BME280;21525;41.240;16.500;2023-07-13T03:13:34;101168.59;;;34.31;34.10
35419;BME280;21525;41.240;16.500;2023-07-13T03:16:03;101176.84;;;34.29;34.13
35419;BME280;21525;41.240;16.500;2023-07-13T03:18:29;101161.88;;;34.43;33.46
35419;BME280;21525;41.240;16.500;2023-07-13T03:20:58;101172.22;;;34.22;33.64
35419;BME280;21525;41.240;16.500;2023-07-13T03:23:24;101170.84;;;34.52;33.27
35419;BME280;21525;41.240;16.500;2023-07-13T03:26:00;101176.41;;;34.42;33.21
35419;BME280;21525;41.240;16.500;2023-07-13T03:28:28;101179.44;;;34.47;33.68
35419;BME280;21525;41.240;16.500;2023-07-13T03:31:06;101183.50;;;34.51;33.75
35419;BME280;21525;41.240;16.500;2023-07-13T03:33:32;101183.50;;;34.51;33.32
35419;BME280;21525;41.240;16.500;2023-07-13T03:35:58;101183.56;;;34.67;32.99
35419;BME280;21525;41.240;16.500;2023-07-13T03:38:24;101177.94;;;34.53;32.98
35419;BME280;21525;41.240;16.500;2023-07-13T03:40:52;101176.03;;;34.37;31.06
35419;BME280;21525;41.240;16.500;2023-07-13T03:43:18;101177.69;;;34.30;31.21
35419;BME280;21525;41.240;16.500;2023-07-13T03:45:46;101171.47;;;34.03;31.31
35419;BME280;21525;41.240;16.500;2023-07-13T03:48:13;101172.22;;;34.64;30.93
35419;BME280;21525;41.240;16.500;2023-07-13T03:50:39;101171.25;;;34.73;31.47
35419;BME280;21525;41.240;16.500;2023-07-13T03:53:05;101168.88;;;34.70;31.27
35419;BME280;21525;41.240;16.500;2023-07-13T03:55:31;101169.00;;;34.60;30.97
35419;BME280;21525;41.240;16.500;2023-07-13T03:58:23;101180.69;;;34.69;31.45
35419;BME280;21525;41.240;16.500;2023-07-13T04:00:47;101177.28;;;34.59;31.01
35419;BME280;21525;41.240;16.500;2023-07-13T04:03:13;101189.31;;;34.73;31.54
35419;BME280;21525;41.240;16.500;2023-07-13T04:05:39;101190.38;;;34.88;30.28
35419;BME280;21525;41.240;16.500;2023-07-13T04:08:06;101182.63;;;35.42;30.17
35419;BME280;21525;41.240;16.500;2023-07-13T04:10:32;101197.50;;;35.70;29.74
35419;BME280;21525;41.240;16.500;2023-07-13T04:12:58;101193.09;;;35.85;29.75
35419;BME280;21525;41.240;16.500;2023-07-13T04:15:24;101194.09;;;35.84;30.02
35419;BME280;21525;41.240;16.500;2023-07-13T04:17:50;101201.19;;;35.85;29.63
35419;BME280;21525;41.240;16.500;2023-07-13T04:20:16;101199.16;;;35.95;29.31
35419;BME280;21525;41.240;16.500;2023-07-13T04:22:41;101189.91;;;36.37;29.03
35419;BME280;21525;41.240;16.500;2023-07-13T04:25:07;101191.78;;;36.59;28.36
35419;BME280;21525;41.240;16.500;2023-07-13T04:27:33;101191.09;;;37.57;27.54
35419;BME280;21525;41.240;16.500;2023-07-13T04:29:59;101186.16;;;38.05;26.64
35419;BME280;21525;41.240;16.500;2023-07-13T04:32:24;101190.88;;;37.67;27.09
35419;BME280;21525;41.240;16.500;2023-07-13T04:34:50;101187.22;;;38.69;26.93
35419;BME280;21525;41.240;16.500;2023-07-13T04:37:19;101193.81;;;38.96;26.28
35419;BME280;21525;41.240;16.500;2023-07-13T04:39:45;101198.94;;;39.06;26.28
35419;BME280;21525;41.240;16.500;2023-07-13T04:42:11;101181.03;;;39.67;26.80
35419;BME280;21525;41.240;16.500;2023-07-13T04:44:37;101185.34;;;39.83;26.53
35419;BME280;21525;41.240;16.500;2023-07-13T04:47:03;101189.53;;;39.85;26.74
35419;BME280;21525;41.240;16.500;2023-07-13T04:49:28;101180.19;;;40.36;25.80
35419;BME280;21525;41.240;16.500;2023-07-13T04:51:54;101177.03;;;41.33;25.32
35419;BME280;21525;41.240;16.500;2023-07-13T04:54:20;101186.44;;;40.97;25.37
35419;BME280;21525;41.240;16.500;2023-07-13T04:56:47;101184.19;;;41.60;24.89
35419;BME280;21525;41.240;16.500;2023-07-13T04:59:12;101189.69;;;42.24;24.15
35419;BME280;21525;41.240;16.500;2023-07-13T05:01:38;101194.88;;;41.35;24.55
35419;BME280;21525;41.240;16.500;2023-07-13T05:04:04;101188.44;;;40.62;24.96
35419;BME280;21525;41.240;16.500;2023-07-13T05:06:30;101194.06;;;40.47;24.95
35419;BME280;21525;41.240;16.500;2023-07-13T05:08:56;101188.25;;;40.63;25.12
35419;BME280;21525;41.240;16.500;2023-07-13T05:11:22;101198.44;;;41.09;25.46
35419;BME280;21525;41.240;16.500;2023-07-13T05:13:48;101188.09;;;41.97;25.22
35419;BME280;21525;41.240;16.500;2023-07-13T05:16:14;101183.44;;;42.17;24.78
35419;BME280;21525;41.240;16.500;2023-07-13T05:18:39;101197.28;;;43.05;23.63
35419;BME280;21525;41.240;16.500;2023-07-13T05:21:07;101195.41;;;42.99;23.46
35419;BME280;21525;41.240;16.500;2023-07-13T05:23:35;101194.75;;;43.35;23.22
35419;BME280;21525;41.240;16.500;2023-07-13T05:26:02;101196.28;;;44.29;22.89
35419;BME280;21525;41.240;16.500;2023-07-13T05:28:29;101193.38;;;44.24;22.20
35419;BME280;21525;41.240;16.500;2023-07-13T05:30:55;101199.03;;;43.74;22.77
35419;BME280;21525;41.240;16.500;2023-07-13T05:33:21;101197.13;;;42.94;23.54
35419;BME280;21525;41.240;16.500;2023-07-13T05:35:47;101197.72;;;42.64;23.98
35419;BME280;21525;41.240;16.500;2023-07-13T05:38:13;101200.22;;;42.72;23.93
35419;BME280;21525;41.240;16.500;2023-07-13T05:40:39;101211.31;;;42.33;24.09
35419;BME280;21525;41.240;16.500;2023-07-13T05:43:05;101209.31;;;42.59;24.57
35419;BME280;21525;41.240;16.500;2023-07-13T05:45:30;101204.28;;;42.56;24.35
35419;BME280;21525;41.240;16.500;2023-07-13T05:47:56;101214.66;;;42.48;23.48
35419;BME280;21525;41.240;16.500;2023-07-13T05:50:22;101209.38;;;42.91;23.06
35419;BME280;21525;41.240;16.500;2023-07-13T05:52:48;101205.63;;;42.47;23.94
35419;BME280;21525;41.240;16.500;2023-07-13T05:55:13;101210.03;;;42.48;23.97
35419;BME280;21525;41.240;16.500;2023-07-13T05:57:39;101205.03;;;42.77;23.91
35419;BME280;21525;41.240;16.500;2023-07-13T06:00:05;101211.44;;;42.96;24.24
35419;BME280;21525;41.240;16.500;2023-07-13T06:02:38;101209.31;;;42.98;23.99
35419;BME280;21525;41.240;16.500;2023-07-13T06:05:04;101209.38;;;43.22;24.06
35419;BME280;21525;41.240;16.500;2023-07-13T06:07:30;101210.72;;;42.82;26.36
35419;BME280;21525;41.240;16.500;2023-07-13T06:09:56;101218.09;;;42.75;27.24
35419;BME280;21525;41.240;16.500;2023-07-13T06:12:22;101212.31;;;42.89;26.71
35419;BME280;21525;41.240;16.500;2023-07-13T06:14:47;101212.38;;;42.76;26.25
35419;BME280;21525;41.240;16.500;2023-07-13T06:17:13;101215.53;;;42.42;26.39
35419;BME280;21525;41.240;16.500;2023-07-13T06:19:39;101220.25;;;42.59;26.25
35419;BME280;21525;41.240;16.500;2023-07-13T06:22:05;101219.66;;;42.96;25.65
35419;BME280;21525;41.240;16.500;2023-07-13T06:24:30;101224.56;;;42.87;26.58
35419;BME280;21525;41.240;16.500;2023-07-13T06:26:56;101227.84;;;41.86;26.88
35419;BME280;21525;41.240;16.500;2023-07-13T06:29:22;101241.09;;;40.62;28.32
35419;BME280;21525;41.240;16.500;2023-07-13T06:31:47;101239.31;;;40.35;29.22
35419;BME280;21525;41.240;16.500;2023-07-13T06:34:13;101242.50;;;40.93;28.27
35419;BME280;21525;41.240;16.500;2023-07-13T06:36:39;101234.31;;;41.92;27.97
35419;BME280;21525;41.240;16.500;2023-07-13T06:39:06;101234.84;;;42.40;27.52
35419;BME280;21525;41.240;16.500;2023-07-13T06:41:32;101236.75;;;42.46;27.87
35419;BME280;21525;41.240;16.500;2023-07-13T06:43:58;101252.84;;;42.10;29.88
35419;BME280;21525;41.240;16.500;2023-07-13T06:46:25;101253.06;;;41.49;29.63
35419;BME280;21525;41.240;16.500;2023-07-13T06:48:51;101253.69;;;41.44;29.10
35419;BME280;21525;41.240;16.500;2023-07-13T06:51:17;101248.19;;;41.11;29.41
35419;BME280;21525;41.240;16.500;2023-07-13T06:53:42;101253.69;;;41.38;28.17
35419;BME280;21525;41.240;16.500;2023-07-13T06:56:10;101251.38;;;41.41;27.96
35419;BME280;21525;41.240;16.500;2023-07-13T06:58:36;101260.81;;;42.05;27.34
35419;BME280;21525;41.240;16.500;2023-07-13T07:01:03;101251.25;;;42.47;26.95
35419;BME280;21525;41.240;16.500;2023-07-13T07:03:29;101263.94;;;42.21;27.19
35419;BME280;21525;41.240;16.500;2023-07-13T07:06:00;101252.09;;;42.47;26.63
35419;BME280;21525;41.240;16.500;2023-07-13T07:08:26;101259.69;;;42.45;26.23
35419;BME280;21525;41.240;16.500;2023-07-13T07:10:52;101256.63;;;42.09;26.50
35419;BME280;21525;41.240;16.500;2023-07-13T07:13:20;101257.13;;;40.79;27.18
35419;BME280;21525;41.240;16.500;2023-07-13T07:15:45;101248.44;;;41.76;26.46
35419;BME280;21525;41.240;16.500;2023-07-13T07:18:11;101252.22;;;41.68;26.09
35419;BME280;21525;41.240;16.500;2023-07-13T07:20:37;101253.03;;;41.95;25.69
35419;BME280;21525;41.240;16.500;2023-07-13T07:23:03;101244.22;;;42.06;25.14
35419;BME280;21525;41.240;16.500;2023-07-13T07:25:28;101236.94;;;42.51;24.35
35419;BME280;21525;41.240;16.500;2023-07-13T07:27:58;101243.00;;;43.30;24.19
35419;BME280;21525;41.240;16.500;2023-07-13T07:30:25;101233.59;;;43.50;24.62
35419;BME280;21525;41.240;16.500;2023-07-13T07:32:51;101232.06;;;42.98;24.43
35419;BME280;21525;41.240;16.500;2023-07-13T07:35:17;101241.06;;;43.37;24.48
35419;BME280;21525;41.240;16.500;2023-07-13T07:37:42;101228.63;;;43.59;24.22
35419;BME280;21525;41.240;16.500;2023-07-13T07:40:08;101228.44;;;44.04;23.60
35419;BME280;21525;41.240;16.500;2023-07-13T07:42:34;101227.69;;;44.15;23.74
35419;BME280;21525;41.240;16.500;2023-07-13T07:45:00;101227.50;;;44.28;23.44
35419;BME280;21525;41.240;16.500;2023-07-13T07:47:26;101229.66;;;44.08;23.79
35419;BME280;21525;41.240;16.500;2023-07-13T07:49:52;101223.09;;;44.27;23.44
35419;BME280;21525;41.240;16.500;2023-07-13T07:52:18;101221.56;;;44.31;23.52
35419;BME280;21525;41.240;16.500;2023-07-13T07:54:44;101218.53;;;44.03;23.97
35419;BME280;21525;41.240;16.500;2023-07-13T07:57:10;101215.97;;;44.08;23.97
35419;BME280;21525;41.240;16.500;2023-07-13T07:59:36;101208.00;;;44.36;24.23
35419;BME280;21525;41.240;16.500;2023-07-13T08:02:03;101215.94;;;44.44;24.14
35419;BME280;21525;41.240;16.500;2023-07-13T08:04:28;101208.78;;;44.73;23.99
35419;BME280;21525;41.240;16.500;2023-07-13T08:06:54;101210.38;;;45.23;23.56
35419;BME280;21525;41.240;16.500;2023-07-13T08:09:22;101200.50;;;45.45;22.62
35419;BME280;21525;41.240;16.500;2023-07-13T08:11:47;101194.31;;;45.61;22.79
35419;BME280;21525;41.240;16.500;2023-07-13T08:14:13;101196.09;;;45.67;21.52
35419;BME280;21525;41.240;16.500;2023-07-13T08:16:39;101198.44;;;45.87;19.94
35419;BME280;21525;41.240;16.500;2023-07-13T08:19:05;101192.34;;;45.50;19.33
35419;BME280;21525;41.240;16.500;2023-07-13T08:21:31;101198.31;;;45.82;19.05
35419;BME280;21525;41.240;16.500;2023-07-13T08:23:57;101196.56;;;46.39;18.87
35419;BME280;21525;41.240;16.500;2023-07-13T08:26:23;101202.59;;;45.19;19.25
35419;BME280;21525;41.240;16.500;2023-07-13T08:28:49;101205.38;;;44.90;24.33
35419;BME280;21525;41.240;16.500;2023-07-13T08:31:15;101213.50;;;45.38;25.58
35419;BME280;21525;41.240;16.500;2023-07-13T08:33:40;101221.84;;;43.12;30.63
35419;BME280;21525;41.240;16.500;2023-07-13T08:36:06;101228.91;;;41.33;34.81
35419;BME280;21525;41.240;16.500;2023-07-13T08:38:32;101221.34;;;41.68;34.10
35419;BME280;21525;41.240;16.500;2023-07-13T08:40:58;101220.25;;;42.08;31.08
35419;BME280;21525;41.240;16.500;2023-07-13T08:43:35;101224.03;;;41.08;31.18
35419;BME280;21525;41.240;16.500;2023-07-13T08:46:12;101209.81;;;42.50;30.13
35419;BME280;21525;41.240;16.500;2023-07-13T08:48:46;101218.19;;;41.77;30.80
35419;BME280;21525;41.240;16.500;2023-07-13T08:53:48;101213.25;;;40.26;30.75
35419;BME280;21525;41.240;16.500;2023-07-13T08:56:25;101210.50;;;40.74;29.63
35419;BME280;21525;41.240;16.500;2023-07-13T08:58:58;101201.72;;;40.30;29.83
35419;BME280;21525;41.240;16.500;2023-07-13T09:04:12;101197.91;;;40.73;28.89
35419;BME280;21525;41.240;16.500;2023-07-13T09:07:01;101202.19;;;41.02;27.48
35419;BME280;21525;41.240;16.500;2023-07-13T09:09:48;101194.25;;;41.53;26.69
35419;BME280;21525;41.240;16.500;2023-07-13T09:14:56;101192.63;;;41.58;26.67
35419;BME280;21525;41.240;16.500;2023-07-13T09:17:35;101189.22;;;41.37;27.34
35419;BME280;21525;41.240;16.500;2023-07-13T09:20:31;101193.41;;;41.59;26.46
35419;BME280;21525;41.240;16.500;2023-07-13T09:23:00;101190.28;;;41.55;28.22
35419;BME280;21525;41.240;16.500;2023-07-13T09:25:32;101193.00;;;41.36;31.69
35419;BME280;21525;41.240;16.500;2023-07-13T09:28:02;101188.78;;;41.79;31.47
35419;BME280;21525;41.240;16.500;2023-07-13T09:31:04;101182.41;;;41.92;35.00
35419;BME280;21525;41.240;16.500;2023-07-13T09:33:31;101199.25;;;40.90;36.02
35419;BME280;21525;41.240;16.500;2023-07-13T09:35:58;101196.78;;;41.61;34.29
35419;BME280;21525;41.240;16.500;2023-07-13T09:38:27;101202.59;;;40.99;34.22
35419;BME280;21525;41.240;16.500;2023-07-13T09:40:59;101197.03;;;39.77;35.67
35419;BME280;21525;41.240;16.500;2023-07-13T09:43:28;101195.28;;;38.98;35.46
35419;BME280;21525;41.240;16.500;2023-07-13T09:45:55;101196.53;;;39.67;34.61
35419;BME280;21525;41.240;16.500;2023-07-13T09:48:21;101189.22;;;39.95;33.42
35419;BME280;21525;41.240;16.500;2023-07-13T09:50:47;101190.56;;;39.50;32.65
35419;BME280;21525;41.240;16.500;2023-07-13T09:53:15;101196.31;;;39.89;31.00
35419;BME280;21525;41.240;16.500;2023-07-13T09:55:44;101192.00;;;39.80;31.60
35419;BME280;21525;41.240;16.500;2023-07-13T09:58:14;101184.47;;;40.65;30.48
35419;BME280;21525;41.240;16.500;2023-07-13T10:00:43;101196.84;;;39.50;32.50
35419;BME280;21525;41.240;16.500;2023-07-13T10:03:28;101191.72;;;40.38;32.87
35419;BME280;21525;41.240;16.500;2023-07-13T10:06:03;101190.31;;;39.02;35.02
35419;BME280;21525;41.240;16.500;2023-07-13T10:08:35;101182.25;;;40.27;32.59
35419;BME280;21525;41.240;16.500;2023-07-13T10:11:18;101172.44;;;39.91;31.44
35419;BME280;21525;41.240;16.500;2023-07-13T10:13:50;101172.19;;;39.58;30.01
35419;BME280;21525;41.240;16.500;2023-07-13T10:16:17;101171.91;;;40.16;28.51
35419;BME280;21525;41.240;16.500;2023-07-13T10:18:49;101171.19;;;39.94;28.56
35419;BME280;21525;41.240;16.500;2023-07-13T10:21:21;101171.31;;;40.75;27.55
35419;BME280;21525;41.240;16.500;2023-07-13T10:23:51;101161.59;;;40.05;28.29
35419;BME280;21525;41.240;16.500;2023-07-13T10:26:25;101161.91;;;39.88;27.40
35419;BME280;21525;41.240;16.500;2023-07-13T10:28:55;101154.41;;;40.38;25.82
35419;BME280;21525;41.240;16.500;2023-07-13T10:31:22;101162.75;;;40.84;28.60
35419;BME280;21525;41.240;16.500;2023-07-13T10:33:48;101161.63;;;40.59;30.93
35419;BME280;21525;41.240;16.500;2023-07-13T10:36:43;101169.31;;;40.42;32.01
35419;BME280;21525;41.240;16.500;2023-07-13T10:39:15;101172.66;;;39.62;37.09
35419;BME280;21525;41.240;16.500;2023-07-13T10:41:44;101164.06;;;39.93;35.82
35419;BME280;21525;41.240;16.500;2023-07-13T10:44:21;101166.13;;;38.71;40.06
35419;BME280;21525;41.240;16.500;2023-07-13T10:46:54;101172.47;;;38.57;40.58
35419;BME280;21525;41.240;16.500;2023-07-13T10:49:22;101164.53;;;39.19;38.83
35419;BME280;21525;41.240;16.500;2023-07-13T10:51:48;101164.47;;;38.55;42.15
35419;BME280;21525;41.240;16.500;2023-07-13T10:56:50;101153.41;;;38.21;44.31
35419;BME280;21525;41.240;16.500;2023-07-13T10:59:23;101154.22;;;38.07;41.88
35419;BME280;21525;41.240;16.500;2023-07-13T11:01:56;101146.75;;;38.09;41.89
35419;BME280;21525;41.240;16.500;2023-07-13T11:04:25;101140.09;;;38.26;41.21
35419;BME280;21525;41.240;16.500;2023-07-13T11:06:57;101138.66;;;37.42;40.59
35419;BME280;21525;41.240;16.500;2023-07-13T11:09:34;101147.31;;;37.60;40.22
35419;BME280;21525;41.240;16.500;2023-07-13T11:17:37;101118.28;;;38.05;37.77
35419;BME280;21525;41.240;16.500;2023-07-13T11:20:20;101124.44;;;38.85;35.95
35419;BME280;21525;41.240;16.500;2023-07-13T11:25:29;101118.09;;;37.62;35.50
35419;BME280;21525;41.240;16.500;2023-07-13T11:35:46;101110.53;;;38.16;33.58
35419;BME280;21525;41.240;16.500;2023-07-13T11:38:19;101100.16;;;39.05;32.32
35419;BME280;21525;41.240;16.500;2023-07-13T11:40:46;101107.13;;;38.50;33.53
35419;BME280;21525;41.240;16.500;2023-07-13T11:43:16;101110.88;;;38.64;32.90
35419;BME280;21525;41.240;16.500;2023-07-13T11:45:43;101111.88;;;39.55;31.25
35419;BME280;21525;41.240;16.500;2023-07-13T11:48:38;101099.44;;;39.80;31.66
35419;BME280;21525;41.240;16.500;2023-07-13T11:51:05;101102.13;;;38.90;33.03
35419;BME280;21525;41.240;16.500;2023-07-13T11:53:38;101099.16;;;40.10;32.14
35419;BME280;21525;41.240;16.500;2023-07-13T11:56:06;101100.59;;;39.37;31.83
35419;BME280;21525;41.240;16.500;2023-07-13T11:58:32;101092.63;;;39.35;31.73
35419;BME280;21525;41.240;16.500;2023-07-13T12:00:59;101100.91;;;38.99;31.76
35419;BME280;21525;41.240;16.500;2023-07-13T12:03:27;101089.94;;;39.63;30.98
35419;BME280;21525;41.240;16.500;2023-07-13T12:06:04;101095.41;;;40.11;32.00
35419;BME280;21525;41.240;16.500;2023-07-13T12:08:38;101093.91;;;39.67;32.38
35419;BME280;21525;41.240;16.500;2023-07-13T12:11:18;101095.84;;;38.89;31.34
35419;BME280;21525;41.240;16.500;2023-07-13T12:13:46;101092.16;;;39.53;30.64
35419;BME280;21525;41.240;16.500;2023-07-13T12:18:43;101085.00;;;39.86;30.08
35419;BME280;21525;41.240;16.500;2023-07-13T12:21:17;101086.13;;;39.57;30.91
35419;BME280;21525;41.240;16.500;2023-07-13T12:23:47;101090.53;;;40.00;29.66
35419;BME280;21525;41.240;16.500;2023-07-13T12:26:15;101083.47;;;39.08;30.31
35419;BME280;21525;41.240;16.500;2023-07-13T12:28:51;101078.16;;;39.90;29.90
35419;BME280;21525;41.240;16.500;2023-07-13T12:33:46;101086.34;;;40.04;30.54
35419;BME280;21525;41.240;16.500;2023-07-13T12:36:12;101081.50;;;39.99;30.45
35419;BME280;21525;41.240;16.500;2023-07-13T12:38:38;101085.00;;;39.17;31.83
35419;BME280;21525;41.240;16.500;2023-07-13T12:41:04;101084.22;;;39.23;32.06
35419;BME280;21525;41.240;16.500;2023-07-13T12:43:34;101079.72;;;39.78;31.71
35419;BME280;21525;41.240;16.500;2023-07-13T12:48:42;101085.22;;;40.39;29.76
35419;BME280;21525;41.240;16.500;2023-07-13T12:51:13;101075.19;;;40.66;29.95
35419;BME280;21525;41.240;16.500;2023-07-13T12:53:42;101085.59;;;40.23;30.52
35419;BME280;21525;41.240;16.500;2023-07-13T12:56:19;101084.63;;;39.89;31.45
35419;BME280;21525;41.240;16.500;2023-07-13T12:58:47;101081.94;;;40.03;29.57
35419;BME280;21525;41.240;16.500;2023-07-13T13:01:17;101085.59;;;38.91;31.42
35419;BME280;21525;41.240;16.500;2023-07-13T13:03:53;101086.31;;;39.56;32.47
35419;BME280;21525;41.240;16.500;2023-07-13T13:06:23;101084.25;;;39.58;33.93
35419;BME280;21525;41.240;16.500;2023-07-13T13:08:54;101084.44;;;39.91;36.30
35419;BME280;21525;41.240;16.500;2023-07-13T13:11:22;101078.84;;;39.09;34.00
35419;BME280;21525;41.240;16.500;2023-07-13T13:13:49;101088.03;;;38.58;34.68
35419;BME280;21525;41.240;16.500;2023-07-13T13:18:55;101091.59;;;38.59;36.21
35419;BME280;21525;41.240;16.500;2023-07-13T13:21:23;101083.34;;;38.74;38.22
35419;BME280;21525;41.240;16.500;2023-07-13T13:23:49;101081.84;;;38.92;35.99